createdAt,value
2022-10-01T00:01:07.162Z,3.72
2022-10-01T00:03:34.920Z,4.20
2022-10-01T00:06:06.408Z,3.53
2022-10-01T00:08:33.824Z,3.10
2022-10-01T00:11:01.612Z,3.88
2022-10-01T00:13:30.617Z,3.58
2022-10-01T00:15:57.569Z,3.42
2022-10-01T00:18:24.082Z,3.33
2022-10-01T00:20:50.769Z,3.50
2022-10-01T00:23:19.383Z,3.15
2022-10-01T00:25:46.016Z,3.30
2022-10-01T00:28:12.694Z,3.40
2022-10-01T00:30:46.511Z,3.03
2022-10-01T00:33:13.090Z,3.15
2022-10-01T00:35:39.665Z,3.10
2022-10-01T00:38:06.249Z,2.97
2022-10-01T00:40:39.370Z,2.65
2022-10-01T00:43:31.400Z,2.38
2022-10-01T00:46:09.441Z,2.53
2022-10-01T00:49:01.865Z,2.45
2022-10-01T00:51:33.284Z,2.70
2022-10-01T00:54:08.792Z,2.78
2022-10-01T00:56:36.852Z,2.80
2022-10-01T00:59:04.538Z,2.10
2022-10-01T01:01:31.466Z,2.83
2022-10-01T01:03:58.812Z,2.97
2022-10-01T01:06:25.547Z,2.90
2022-10-01T01:08:55.193Z,2.65
2022-10-01T01:11:32.134Z,2.20
2022-10-01T01:14:12.188Z,2.55
2022-10-01T01:17:01.472Z,2.40
2022-10-01T01:19:43.435Z,2.78
2022-10-01T01:22:13.434Z,2.42
2022-10-01T01:24:51.675Z,2.95
2022-10-01T01:27:29.007Z,2.97
2022-10-01T01:30:03.776Z,3.70
2022-10-01T01:32:53.006Z,3.80
2022-10-01T01:35:26.559Z,3.75
2022-10-01T01:37:58.772Z,3.40
2022-10-01T01:40:27.242Z,3.60
2022-10-01T01:42:56.246Z,3.35
2022-10-01T01:45:30.755Z,2.90
2022-10-01T01:48:02.179Z,3.67
2022-10-01T01:50:34.429Z,3.67
2022-10-01T01:53:01.179Z,3.30
2022-10-01T01:55:30.039Z,3.15
2022-10-01T01:57:57.217Z,3.45
2022-10-01T02:00:23.945Z,2.95
2022-10-01T02:02:53.957Z,3.28
2022-10-01T02:05:25.802Z,3.65
2022-10-01T02:08:33.073Z,3.63
2022-10-01T02:11:23.734Z,3.53
2022-10-01T02:14:21.371Z,3.35
2022-10-01T02:17:03.629Z,3.17
2022-10-01T02:19:46.007Z,3.22
2022-10-01T02:22:44.918Z,2.50
2022-10-01T02:25:15.501Z,3.58
2022-10-01T02:27:48.802Z,3.05
2022-10-01T02:30:15.491Z,3.38
2022-10-01T02:32:46.018Z,2.50
2022-10-01T02:35:16.356Z,3.35
2022-10-01T02:37:45.313Z,3.30
2022-10-01T02:40:16.239Z,3.35
2022-10-01T02:42:50.003Z,2.67
2022-10-01T02:45:22.808Z,3.92
2022-10-01T02:47:59.012Z,2.92
2022-10-01T02:50:32.226Z,3.97
2022-10-01T02:53:07.073Z,3.42
2022-10-01T02:55:37.864Z,3.30
2022-10-01T02:58:05.394Z,3.25
2022-10-01T03:00:32.361Z,3.10
2022-10-01T03:02:59.120Z,3.45
2022-10-01T03:05:25.966Z,2.78
2022-10-01T03:07:52.992Z,2.88
2022-10-01T03:10:19.841Z,2.60
2022-10-01T03:12:46.936Z,3.63
2022-10-01T03:15:15.333Z,3.90
2022-10-01T03:17:41.866Z,4.03
2022-10-01T03:20:09.744Z,3.78
2022-10-01T03:22:36.429Z,3.63
2022-10-01T03:25:03.551Z,4.88
2022-10-01T03:27:30.310Z,4.50
2022-10-01T03:29:56.892Z,4.38
2022-10-01T03:32:23.504Z,4.38
2022-10-01T03:34:50.132Z,3.50
2022-10-01T03:37:16.747Z,4.15
2022-10-01T03:39:43.271Z,3.70
2022-10-01T03:42:09.817Z,5.07
2022-10-01T03:44:36.427Z,4.72
2022-10-01T03:47:02.994Z,4.88
2022-10-01T03:49:29.534Z,5.30
2022-10-01T03:51:56.556Z,5.10
2022-10-01T03:54:23.373Z,5.15
2022-10-01T03:56:49.977Z,5.70
2022-10-01T03:59:16.609Z,4.90
2022-10-01T04:01:43.217Z,4.50
2022-10-01T04:04:10.006Z,4.68
2022-10-01T04:06:36.610Z,5.32
2022-10-01T04:09:03.379Z,4.03
2022-10-01T04:11:30.373Z,3.85
2022-10-01T04:13:59.928Z,3.90
2022-10-01T04:16:26.479Z,3.10
2022-10-01T04:18:53.846Z,3.40
2022-10-01T04:21:20.443Z,3.35
2022-10-01T04:23:47.152Z,3.35
2022-10-01T04:26:13.773Z,2.80
2022-10-01T04:28:40.364Z,3.40
2022-10-01T04:31:25.173Z,3.30
2022-10-01T04:33:53.847Z,2.88
2022-10-01T04:36:20.916Z,2.97
2022-10-01T04:38:51.012Z,2.83
2022-10-01T04:41:17.617Z,2.70
2022-10-01T04:43:44.258Z,2.70
2022-10-01T04:46:10.821Z,3.17
2022-10-01T04:48:37.310Z,3.17
2022-10-01T04:51:03.952Z,2.75
2022-10-01T04:53:30.750Z,2.30
2022-10-01T04:55:57.302Z,2.47
2022-10-01T04:58:24.034Z,2.92
2022-10-01T05:00:50.859Z,2.17
2022-10-01T05:03:17.921Z,1.98
2022-10-01T05:05:44.607Z,2.63
2022-10-01T05:08:11.161Z,2.70
2022-10-01T05:10:37.844Z,2.58
2022-10-01T05:13:04.448Z,2.22
2022-10-01T05:15:31.251Z,2.10
2022-10-01T05:17:57.826Z,2.33
2022-10-01T05:20:27.069Z,2.95
2022-10-01T05:22:54.471Z,2.55
2022-10-01T05:25:21.313Z,2.83
2022-10-01T05:27:47.970Z,3.05
2022-10-01T05:30:24.060Z,2.95
2022-10-01T05:32:56.417Z,2.60
2022-10-01T05:35:23.438Z,3.03
2022-10-01T05:37:54.015Z,3.35
2022-10-01T05:40:20.652Z,2.40
2022-10-01T05:42:47.542Z,3.85
2022-10-01T05:45:14.261Z,4.82
2022-10-01T05:47:42.407Z,5.18
2022-10-01T05:50:09.697Z,5.32
2022-10-01T05:52:36.263Z,5.25
2022-10-01T05:55:03.054Z,4.45
2022-10-01T05:57:31.139Z,3.80
2022-10-01T05:59:58.030Z,3.17
2022-10-01T06:02:24.737Z,3.30
2022-10-01T06:04:51.616Z,4.25
2022-10-01T06:07:18.345Z,4.15
2022-10-01T06:09:45.249Z,3.35
2022-10-01T06:12:13.662Z,3.58
2022-10-01T06:14:43.021Z,3.50
2022-10-01T06:17:09.576Z,4.38
2022-10-01T06:19:36.158Z,5.22
2022-10-01T06:22:02.692Z,7.47
2022-10-01T06:24:30.248Z,8.65
2022-10-01T06:26:57.170Z,10.38
2022-10-01T06:29:24.061Z,9.75
2022-10-01T06:31:51.912Z,10.00
2022-10-01T06:34:18.693Z,10.13
2022-10-01T06:36:45.439Z,9.32
2022-10-01T06:39:12.001Z,9.43
2022-10-01T06:41:38.591Z,9.43
2022-10-01T06:44:05.273Z,9.10
2022-10-01T06:46:32.450Z,9.82
2022-10-01T06:48:59.342Z,10.23
2022-10-01T06:51:44.519Z,11.35
2022-10-01T06:54:11.099Z,10.52
2022-10-01T06:56:37.772Z,11.43
2022-10-01T06:59:04.447Z,10.32
2022-10-01T07:01:33.029Z,10.45
2022-10-01T07:03:59.801Z,10.90
2022-10-01T07:06:26.533Z,10.30
2022-10-01T07:08:53.225Z,9.65
2022-10-01T07:11:20.430Z,9.20
2022-10-01T07:13:49.992Z,9.25
2022-10-01T07:16:19.083Z,8.88
2022-10-01T07:18:45.611Z,8.25
2022-10-01T07:21:12.230Z,8.25
2022-10-01T07:23:38.830Z,8.05
2022-10-01T07:26:06.115Z,7.68
2022-10-01T07:28:32.634Z,7.90
2022-10-01T07:31:06.862Z,7.38
2022-10-01T07:33:33.442Z,6.65
2022-10-01T07:36:01.733Z,7.55
2022-10-01T07:38:28.869Z,8.13
2022-10-01T07:40:55.470Z,7.38
2022-10-01T07:43:22.709Z,7.30
2022-10-01T07:45:50.256Z,8.32
2022-10-01T07:48:17.173Z,8.30
2022-10-01T07:50:47.525Z,7.05
2022-10-01T07:53:14.378Z,6.18
2022-10-01T07:55:40.952Z,6.18
2022-10-01T07:58:08.121Z,6.97
2022-10-01T08:00:35.383Z,7.47
2022-10-01T08:03:02.039Z,6.50
2022-10-01T08:05:31.194Z,5.63
2022-10-01T08:08:03.570Z,6.38
2022-10-01T08:10:30.674Z,6.15
2022-10-01T08:13:08.210Z,5.55
2022-10-01T08:15:35.582Z,5.70
2022-10-01T08:18:05.597Z,6.22
2022-10-01T08:20:32.550Z,6.30
2022-10-01T08:23:07.784Z,5.93
2022-10-01T08:25:35.100Z,6.20
2022-10-01T08:28:02.058Z,5.80
2022-10-01T08:30:29.682Z,5.95
2022-10-01T08:32:58.177Z,5.85
2022-10-01T08:35:25.511Z,5.97
2022-10-01T08:37:52.205Z,5.67
2022-10-01T08:40:21.658Z,5.75
2022-10-01T08:42:51.150Z,5.95
2022-10-01T08:45:27.118Z,5.88
2022-10-01T08:48:07.616Z,5.97
2022-10-01T08:50:56.284Z,6.82
2022-10-01T08:53:38.331Z,6.30
2022-10-01T08:56:12.955Z,7.47
2022-10-01T08:58:45.777Z,7.63
2022-10-01T09:01:12.457Z,6.93
2022-10-01T09:03:40.339Z,8.45
2022-10-01T09:06:21.517Z,7.63
2022-10-01T09:09:20.403Z,7.47
2022-10-01T09:12:14.132Z,7.15
2022-10-01T09:15:17.966Z,7.82
2022-10-01T09:17:44.402Z,6.88
2022-10-01T09:20:27.499Z,7.63
2022-10-01T09:23:18.845Z,8.23
2022-10-01T09:25:50.310Z,8.73
2022-10-01T09:28:30.219Z,9.13
2022-10-01T09:30:59.133Z,8.80
2022-10-01T09:33:33.722Z,9.00
2022-10-01T09:36:34.227Z,9.95
2022-10-01T09:39:21.842Z,9.68
2022-10-01T09:41:48.474Z,9.77
2022-10-01T09:44:28.828Z,9.30
2022-10-01T09:46:55.658Z,8.77
2022-10-01T09:49:31.646Z,9.02
2022-10-01T09:52:04.204Z,10.02
2022-10-01T09:54:46.874Z,9.30
2022-10-01T09:57:36.094Z,9.32
2022-10-01T10:00:18.300Z,10.18
2022-10-01T10:02:50.491Z,10.07
2022-10-01T10:05:20.486Z,11.43
2022-10-01T10:07:51.791Z,12.40
2022-10-01T10:10:28.564Z,11.35
2022-10-01T10:13:01.845Z,11.77
2022-10-01T10:15:31.370Z,12.00
2022-10-01T10:18:07.167Z,10.82
2022-10-01T10:20:41.476Z,9.38
2022-10-01T10:23:17.402Z,9.80
2022-10-01T10:25:44.238Z,8.65
2022-10-01T10:28:23.697Z,8.35
2022-10-01T10:30:54.042Z,9.43
2022-10-01T10:33:23.400Z,9.90
2022-10-01T10:36:05.145Z,8.88
2022-10-01T10:38:34.839Z,9.30
2022-10-01T10:41:03.979Z,10.90
2022-10-01T10:43:36.599Z,10.15
2022-10-01T10:46:03.693Z,11.05
2022-10-01T10:48:35.346Z,9.57
2022-10-01T10:51:04.891Z,9.68
2022-10-01T10:53:44.250Z,9.70
2022-10-01T10:56:21.897Z,9.00
2022-10-01T10:58:49.983Z,10.10
2022-10-01T11:01:28.784Z,9.80
2022-10-01T11:03:58.663Z,8.10
2022-10-01T11:06:25.590Z,8.27
2022-10-01T11:09:07.241Z,8.20
2022-10-01T11:11:48.648Z,7.82
2022-10-01T11:14:31.188Z,7.80
2022-10-01T11:17:20.320Z,8.07
2022-10-01T11:20:02.182Z,8.38
2022-10-01T11:22:46.901Z,8.18
2022-10-01T11:25:35.638Z,9.13
2022-10-01T11:28:57.674Z,8.43
2022-10-01T11:31:47.261Z,8.23
2022-10-01T11:34:55.245Z,7.82
2022-10-01T11:40:05.135Z,7.38
2022-10-01T11:42:36.809Z,9.40
2022-10-01T11:45:11.259Z,8.27
2022-10-01T11:48:01.948Z,9.02
2022-10-01T11:50:39.051Z,7.60
2022-10-01T11:53:17.983Z,7.27
2022-10-01T11:56:10.741Z,8.52
2022-10-01T11:58:54.734Z,7.22
2022-10-01T12:01:24.963Z,7.32
2022-10-01T12:03:54.606Z,8.00
2022-10-01T12:06:33.773Z,7.93
2022-10-01T12:09:15.006Z,7.22
2022-10-01T12:11:54.556Z,6.20
2022-10-01T12:14:31.644Z,6.00
2022-10-01T12:17:13.671Z,5.82
2022-10-01T12:19:45.244Z,7.97
2022-10-01T12:22:24.555Z,7.22
2022-10-01T12:24:53.202Z,7.72
2022-10-01T12:30:07.816Z,7.60
2022-10-01T12:33:01.923Z,7.32
2022-10-01T12:35:51.920Z,8.10
2022-10-01T12:38:45.048Z,7.82
2022-10-01T12:41:43.116Z,7.95
2022-10-01T12:47:14.616Z,5.68
2022-10-01T12:49:58.515Z,5.80
2022-10-01T12:52:40.323Z,6.25
2022-10-01T12:55:43.424Z,6.97
2022-10-01T12:58:39.995Z,7.40
2022-10-01T13:01:19.192Z,6.43
2022-10-01T13:06:55.227Z,5.10
2022-10-01T13:09:38.516Z,5.65
2022-10-01T13:12:05.378Z,6.25
2022-10-01T13:14:34.784Z,5.05
2022-10-01T13:17:21.569Z,5.78
2022-10-01T13:19:58.276Z,5.53
2022-10-01T13:22:42.926Z,5.15
2022-10-01T13:25:25.124Z,4.32
2022-10-01T13:27:56.069Z,3.95
2022-10-01T13:30:24.932Z,4.85
2022-10-01T13:32:57.864Z,5.20
2022-10-01T13:35:35.956Z,4.32
2022-10-01T13:40:41.060Z,3.92
2022-10-01T13:43:16.703Z,4.70
2022-10-01T13:45:46.426Z,4.20
2022-10-01T13:48:18.400Z,4.95
2022-10-01T13:51:10.745Z,4.32
2022-10-01T13:53:47.446Z,3.50
2022-10-01T13:56:28.521Z,3.83
2022-10-01T13:58:55.558Z,3.40
2022-10-01T14:01:24.354Z,4.07
2022-10-01T14:03:55.622Z,3.45
2022-10-01T14:06:33.200Z,3.65
2022-10-01T14:09:11.796Z,3.95
2022-10-01T14:12:00.850Z,3.55
2022-10-01T14:14:50.525Z,3.17
2022-10-01T14:17:22.426Z,2.53
2022-10-01T14:19:50.890Z,3.10
2022-10-01T14:25:35.453Z,3.03
2022-10-01T14:28:25.400Z,3.08
2022-10-01T14:31:33.804Z,3.10
2022-10-01T14:34:06.270Z,2.80
2022-10-01T14:36:35.681Z,3.15
2022-10-01T14:39:19.835Z,2.65
2022-10-01T14:41:51.993Z,2.63
2022-10-01T14:44:22.045Z,2.70
2022-10-01T14:46:49.976Z,2.60
2022-10-01T14:49:34.804Z,2.70
2022-10-01T14:52:07.281Z,2.70
2022-10-01T14:54:56.218Z,3.15
2022-10-01T14:57:35.006Z,3.08
2022-10-01T15:00:08.926Z,2.58
2022-10-01T15:02:50.836Z,2.03
2022-10-01T15:05:26.599Z,1.75
2022-10-01T15:07:53.681Z,1.90
2022-10-01T15:10:24.847Z,1.65
2022-10-01T15:12:52.816Z,1.80
2022-10-01T15:15:39.477Z,1.60
2022-10-01T15:18:06.888Z,1.73
2022-10-01T15:20:34.240Z,1.88
2022-10-01T15:23:01.789Z,1.83
2022-10-01T15:25:31.482Z,1.60
2022-10-01T15:27:58.135Z,1.67
2022-10-01T15:30:30.502Z,2.25
2022-10-01T15:32:57.644Z,2.20
2022-10-01T15:35:25.059Z,1.83
2022-10-01T15:37:53.927Z,1.80
2022-10-01T15:40:29.149Z,1.80
2022-10-01T15:43:21.672Z,2.03
2022-10-01T15:46:31.376Z,1.15
2022-10-01T15:49:19.716Z,1.35
2022-10-01T15:52:17.960Z,1.17
2022-10-01T15:54:45.984Z,1.20
2022-10-01T15:57:20.949Z,1.30
2022-10-01T15:59:50.066Z,1.60
2022-10-01T16:02:26.270Z,1.80
2022-10-01T16:04:55.994Z,1.80
2022-10-01T16:07:29.496Z,2.28
2022-10-01T16:09:59.158Z,1.77
2022-10-01T16:12:29.370Z,1.90
2022-10-01T16:15:01.462Z,1.98
2022-10-01T16:17:35.369Z,1.27
2022-10-01T16:20:14.050Z,1.70
2022-10-01T16:22:40.740Z,1.15
2022-10-01T16:25:25.568Z,1.45
2022-10-01T16:27:55.358Z,1.70
2022-10-01T16:30:27.687Z,1.70
2022-10-01T16:32:55.430Z,1.30
2022-10-01T16:35:33.048Z,4.57
2022-10-01T16:38:01.031Z,3.88
2022-10-01T16:40:33.036Z,1.90
2022-10-01T16:43:00.691Z,2.00
2022-10-01T16:45:32.758Z,1.80
2022-10-01T16:48:00.527Z,1.45
2022-10-01T16:50:27.371Z,1.67
2022-10-01T16:52:55.744Z,1.88
2022-10-01T16:55:26.148Z,2.47
2022-10-01T16:57:57.084Z,2.40
2022-10-01T17:00:26.910Z,2.88
2022-10-01T17:02:55.451Z,3.00
2022-10-01T17:05:27.079Z,3.35
2022-10-01T17:07:55.086Z,3.25
2022-10-01T17:10:23.614Z,3.85
2022-10-01T17:12:50.359Z,3.78
2022-10-01T17:15:20.087Z,4.07
2022-10-01T17:17:48.415Z,3.53
2022-10-01T17:20:15.258Z,3.80
2022-10-01T17:22:44.904Z,4.00
2022-10-01T17:25:18.901Z,4.43
2022-10-01T17:27:46.067Z,3.70
2022-10-01T17:30:13.167Z,4.13
2022-10-01T17:32:40.371Z,5.15
2022-10-01T17:35:08.054Z,4.55
2022-10-01T17:37:34.943Z,3.92
2022-10-01T17:40:02.167Z,4.65
2022-10-01T17:42:29.142Z,4.63
2022-10-01T17:44:56.038Z,4.82
2022-10-01T17:47:22.931Z,6.03
2022-10-01T17:49:49.460Z,5.88
2022-10-01T17:52:16.769Z,5.40
2022-10-01T17:54:43.897Z,5.20
2022-10-01T17:57:13.816Z,4.68
2022-10-01T17:59:40.734Z,4.22
2022-10-01T18:02:23.558Z,4.80
2022-10-01T18:04:54.365Z,5.38
2022-10-01T18:07:21.256Z,5.40
2022-10-01T18:09:47.802Z,5.47
2022-10-01T18:12:14.662Z,4.80
2022-10-01T18:14:43.495Z,4.88
2022-10-01T18:17:10.236Z,4.72
2022-10-01T18:19:53.722Z,5.13
2022-10-01T18:22:29.556Z,5.13
2022-10-01T18:24:56.266Z,5.28
2022-10-01T18:27:22.941Z,5.55
2022-10-01T18:29:49.799Z,5.80
2022-10-01T18:32:23.729Z,5.45
2022-10-01T18:34:59.287Z,4.40
2022-10-01T18:37:57.806Z,5.43
2022-10-01T18:40:29.713Z,5.53
2022-10-01T18:43:02.438Z,5.95
2022-10-01T18:45:46.905Z,6.03
2022-10-01T18:48:25.610Z,5.85
2022-10-01T18:54:31.929Z,5.00
2022-10-01T18:57:28.403Z,4.70
2022-10-01T19:00:17.644Z,4.60
2022-10-01T19:03:02.996Z,4.35
2022-10-01T19:05:47.655Z,4.18
2022-10-01T19:08:24.501Z,4.40
2022-10-01T19:11:17.820Z,4.60
2022-10-01T19:13:44.670Z,4.53
2022-10-01T19:16:44.283Z,4.53
2022-10-01T19:19:40.069Z,5.18
2022-10-01T19:22:47.879Z,4.68
2022-10-01T19:25:32.626Z,4.72
2022-10-01T19:28:29.277Z,4.97
2022-10-01T19:31:08.075Z,5.63
2022-10-01T19:33:42.078Z,5.90
2022-10-01T19:36:17.637Z,5.65
2022-10-01T19:38:47.185Z,5.18
2022-10-01T19:41:18.041Z,4.38
2022-10-01T19:44:24.820Z,4.32
2022-10-01T19:46:56.408Z,4.45
2022-10-01T19:49:33.968Z,4.32
2022-10-01T19:52:04.355Z,4.57
2022-10-01T19:54:34.847Z,4.68
2022-10-01T19:57:17.224Z,4.97
2022-10-01T19:59:47.300Z,4.90
2022-10-01T20:02:21.730Z,3.67
2022-10-01T20:04:58.820Z,4.45
2022-10-01T20:07:56.119Z,4.50
2022-10-01T20:10:45.312Z,5.03
2022-10-01T20:13:14.780Z,4.75
2022-10-01T20:16:38.376Z,5.07
2022-10-01T20:19:23.445Z,5.13
2022-10-01T20:22:06.342Z,5.35
2022-10-01T20:25:05.194Z,4.95
2022-10-01T20:27:49.154Z,5.50
2022-10-01T20:30:21.058Z,5.05
2022-10-01T20:33:49.553Z,5.97
2022-10-01T20:36:23.577Z,4.70
2022-10-01T20:38:57.306Z,4.80
2022-10-01T20:41:29.725Z,5.22
2022-10-01T20:44:00.060Z,5.05
2022-10-01T20:46:33.981Z,6.75
2022-10-01T20:49:05.409Z,6.85
2022-10-01T20:51:43.651Z,5.85
2022-10-01T20:54:15.610Z,6.70
2022-10-01T20:56:47.653Z,7.30
2022-10-01T20:59:24.040Z,6.15
2022-10-01T21:02:02.507Z,7.38
2022-10-01T21:04:43.407Z,7.18
2022-10-01T21:07:36.717Z,6.70
2022-10-01T21:10:21.279Z,7.00
2022-10-01T21:12:59.890Z,7.28
2022-10-01T21:15:43.705Z,7.38
2022-10-01T21:18:33.599Z,6.57
2022-10-01T21:21:32.731Z,7.60
2022-10-01T21:24:06.479Z,8.75
2022-10-01T21:26:54.393Z,7.97
2022-10-01T21:29:39.824Z,7.63
2022-10-01T21:32:06.664Z,6.82
2022-10-01T21:34:50.253Z,7.32
2022-10-01T21:37:45.857Z,8.68
2022-10-01T21:40:43.194Z,7.25
2022-10-01T21:43:47.828Z,8.57
2022-10-01T21:46:41.121Z,8.77
2022-10-01T21:49:13.594Z,7.60
2022-10-01T21:51:55.188Z,8.48
2022-10-01T21:54:40.729Z,7.85
2022-10-01T21:57:10.571Z,8.38
2022-10-01T21:59:46.068Z,7.43
2022-10-01T22:02:48.944Z,5.78
2022-10-01T22:05:37.946Z,6.90
2022-10-01T22:08:16.529Z,6.80
2022-10-01T22:10:46.941Z,6.70
2022-10-01T22:13:23.494Z,6.57
2022-10-01T22:15:54.284Z,6.20
2022-10-01T22:18:36.833Z,5.45
2022-10-01T22:21:10.745Z,5.22
2022-10-01T22:23:41.943Z,4.80
2022-10-01T22:26:16.493Z,4.57
2022-10-01T22:28:47.999Z,3.95
2022-10-01T22:31:25.977Z,4.40
2022-10-01T22:33:57.429Z,3.72
2022-10-01T22:36:44.364Z,3.55
2022-10-01T22:39:17.588Z,3.45
2022-10-01T22:41:56.463Z,4.15
2022-10-01T22:44:23.591Z,3.65
2022-10-01T22:46:55.998Z,3.10
2022-10-01T22:55:19.536Z,2.80
2022-10-01T22:57:56.166Z,3.08
2022-10-01T23:00:23.096Z,2.38
2022-10-01T23:03:06.964Z,2.58
2022-10-01T23:05:52.501Z,3.03
2022-10-01T23:08:43.460Z,2.55
2022-10-01T23:11:25.117Z,2.78
2022-10-01T23:14:22.696Z,2.67
2022-10-01T23:17:04.757Z,1.85
2022-10-01T23:19:41.691Z,2.75
2022-10-01T23:22:11.322Z,3.33
2022-10-01T23:25:15.996Z,3.00
2022-10-01T23:28:13.805Z,4.40
2022-10-01T23:31:19.488Z,10.99
2022-10-01T23:33:53.982Z,3.10
2022-10-01T23:37:21.589Z,3.30
2022-10-01T23:40:04.412Z,3.78
2022-10-01T23:42:49.500Z,2.50
2022-10-01T23:45:28.189Z,4.13
2022-10-01T23:50:58.925Z,14.48
2022-10-01T23:53:32.786Z,4.30
2022-10-01T23:56:23.532Z,9.73
2022-10-01T23:59:03.184Z,2.70
